Time;durP1;ratioP1;P1;durP2;ratioP2;P2;SDS_P1;SDS_P2;PMS_P1;PMS_P2;Temp;Humidity;BMP_temperature;BMP_pressure;BME280_temperature;BME280_humidity;BME280_pressure;Samples;Min_cycle;Max_cycle;Signal;HPM_P1;HPM_P2
2023/01/10 00:00:36;;;;;;;6.43;1.90;;;;;;;;;;5092726;28;20545;-75
2023/01/10 00:03:06;;;;;;;5.07;1.57;;;;;;;;;;5092814;28;20176;-75
2023/01/10 00:05:31;;;;;;;9.93;2.07;;;;;;;;;;5086277;28;20673;-75
2023/01/10 00:07:57;;;;;;;14.40;2.23;;;;;;;;;;5098468;28;20191;-75
2023/01/10 00:10:23;;;;;;;6.47;2.33;;;;;;;;;;5090253;28;20314;-75
2023/01/10 00:15:32;;;;;;;8.00;1.80;;;;;;;;;;5093638;28;20296;-75
2023/01/10 00:17:57;;;;;;;9.87;2.20;;;;;;;;;;5098535;28;20212;-75
2023/01/10 00:20:23;;;;;;;9.57;1.70;;;;;;;;;;5098813;28;20187;-75
2023/01/10 00:22:50;;;;;;;6.30;2.17;;;;;;;;;;5097695;28;20168;-75
2023/01/10 00:25:18;;;;;;;7.00;2.07;;;;;;;;;;5079454;28;20293;-75
2023/01/10 00:27:44;;;;;;;6.63;1.70;;;;;;;;;;5094699;28;20191;-75
2023/01/10 00:30:12;;;;;;;9.20;2.60;;;;;;;;;;5096218;28;20193;-75
2023/01/10 00:32:39;;;;;;;8.63;1.70;;;;;;;;;;5087976;28;20636;-75
2023/01/10 00:35:05;;;;;;;6.47;2.20;;;;;;;;;;5095311;28;20230;-75
2023/01/10 00:37:30;;;;;;;6.13;2.47;;;;;;;;;;5095103;28;20639;-75
2023/01/10 00:39:55;;;;;;;7.13;2.20;;;;;;;;;;5086866;28;20256;-75
2023/01/10 00:45:05;;;;;;;9.13;2.50;;;;;;;;;;5087936;28;20215;-75
2023/01/10 00:47:30;;;;;;;10.80;3.37;;;;;;;;;;5089115;28;20254;-76
2023/01/10 00:49:55;;;;;;;11.53;2.30;;;;;;;;;;5091888;28;20637;-76
2023/01/10 00:52:20;;;;;;;13.47;2.30;;;;;;;;;;5091991;28;20649;-76
2023/01/10 00:54:45;;;;;;;7.60;2.07;;;;;;;;;;5089787;28;20204;-76
2023/01/10 00:57:11;;;;;;;5.60;1.67;;;;;;;;;;5081370;28;20180;-76
2023/01/10 00:59:36;;;;;;;4.60;1.93;;;;;;;;;;5094544;28;20168;-75
2023/01/10 01:02:01;;;;;;;13.77;2.03;;;;;;;;;;5112261;28;20189;-75
2023/01/10 01:04:26;;;;;;;12.80;2.43;;;;;;;;;;5099738;28;20218;-75
2023/01/10 01:06:52;;;;;;;13.83;1.93;;;;;;;;;;5082666;28;20196;-75
2023/01/10 01:09:17;;;;;;;7.63;1.50;;;;;;;;;;5071119;28;20544;-75
2023/01/10 01:11:42;;;;;;;9.27;2.20;;;;;;;;;;5070230;28;20567;-76
2023/01/10 01:14:07;;;;;;;10.30;2.10;;;;;;;;;;5086492;28;20181;-76
2023/01/10 01:16:32;;;;;;;9.30;2.83;;;;;;;;;;5090297;28;20633;-76
2023/01/10 01:18:58;;;;;;;12.47;2.33;;;;;;;;;;5091468;28;20169;-76
2023/01/10 01:21:27;;;;;;;11.03;2.00;;;;;;;;;;5090696;28;20180;-76
2023/01/10 01:23:55;;;;;;;10.77;2.07;;;;;;;;;;5090333;28;20172;-76
2023/01/10 01:26:20;;;;;;;12.17;2.10;;;;;;;;;;5090159;28;20232;-76
2023/01/10 01:28:46;;;;;;;14.83;2.80;;;;;;;;;;5086177;28;20269;-76
2023/01/10 01:31:11;;;;;;;11.30;3.23;;;;;;;;;;5088358;28;20180;-76
2023/01/10 01:33:36;;;;;;;9.30;2.03;;;;;;;;;;5111748;28;20172;-76
2023/01/10 01:36:01;;;;;;;10.53;1.87;;;;;;;;;;5100919;28;20216;-75
2023/01/10 01:38:26;;;;;;;11.87;2.13;;;;;;;;;;5097087;28;20176;-76
2023/01/10 01:40:52;;;;;;;15.20;2.17;;;;;;;;;;5100351;28;20359;-76
2023/01/10 01:43:22;;;;;;;9.53;1.80;;;;;;;;;;5094308;28;20637;-76
2023/01/10 01:45:47;;;;;;;13.10;2.20;;;;;;;;;;5084122;28;20314;-77
2023/01/10 01:48:22;;;;;;;11.33;3.10;;;;;;;;;;5084533;28;20268;-77
2023/01/10 01:50:47;;;;;;;8.30;2.23;;;;;;;;;;5075330;28;20172;-75
2023/01/10 01:53:15;;;;;;;10.60;2.37;;;;;;;;;;5075173;28;20677;-75
2023/01/10 01:55:41;;;;;;;10.93;2.30;;;;;;;;;;5074957;28;20232;-75
2023/01/10 01:58:11;;;;;;;9.93;1.97;;;;;;;;;;5080602;28;20172;-75
2023/01/10 02:00:36;;;;;;;14.57;2.63;;;;;;;;;;5095282;28;20165;-75
2023/01/10 02:03:02;;;;;;;13.50;2.63;;;;;;;;;;5095263;28;20644;-75
2023/01/10 02:05:29;;;;;;;12.27;3.27;;;;;;;;;;5083016;28;20201;-74
2023/01/10 02:07:55;;;;;;;12.23;2.20;;;;;;;;;;5074671;28;20169;-76
2023/01/10 02:10:24;;;;;;;12.23;2.77;;;;;;;;;;5075001;28;20168;-76
2023/01/10 02:12:50;;;;;;;11.20;1.80;;;;;;;;;;5073492;28;20173;-76
2023/01/10 02:15:16;;;;;;;6.83;2.17;;;;;;;;;;5088647;28;20235;-76
2023/01/10 02:17:42;;;;;;;7.17;1.80;;;;;;;;;;5088166;28;20211;-75
2023/01/10 02:20:09;;;;;;;13.30;2.33;;;;;;;;;;5099693;28;20598;-76
2023/01/10 02:22:53;;;;;;;10.83;2.40;;;;;;;;;;5081392;28;20177;-76
2023/01/10 02:25:30;;;;;;;9.80;2.30;;;;;;;;;;5073342;28;20359;-76
2023/01/10 02:28:08;;;;;;;9.90;2.70;;;;;;;;;;5074137;28;20179;-75
2023/01/10 02:30:40;;;;;;;11.53;2.30;;;;;;;;;;5094144;28;20176;-76
2023/01/10 02:33:05;;;;;;;14.77;4.07;;;;;;;;;;5085329;28;20200;-76
2023/01/10 02:35:43;;;;;;;11.63;2.60;;;;;;;;;;5073769;28;20243;-75
2023/01/10 02:38:27;;;;;;;16.47;2.80;;;;;;;;;;5089233;28;20164;-75
2023/01/10 02:41:01;;;;;;;15.57;2.93;;;;;;;;;;5074453;28;20168;-76
2023/01/10 02:43:29;;;;;;;7.07;2.20;;;;;;;;;;5098916;28;20172;-76
2023/01/10 02:46:06;;;;;;;21.10;3.47;;;;;;;;;;5092038;28;20277;-75
2023/01/10 02:48:31;;;;;;;16.37;3.53;;;;;;;;;;5099760;28;20177;-75
2023/01/10 02:50:56;;;;;;;12.23;2.47;;;;;;;;;;5088533;28;20278;-75
2023/01/10 02:53:24;;;;;;;16.63;2.80;;;;;;;;;;5103939;28;20255;-76
2023/01/10 02:56:27;;;;;;;17.97;4.13;;;;;;;;;;5100249;28;20219;-75
2023/01/10 02:59:05;;;;;;;14.53;3.03;;;;;;;;;;5046542;28;20173;-75
2023/01/10 03:01:36;;;;;;;11.03;2.83;;;;;;;;;;5051638;28;20177;-75
2023/01/10 03:04:07;;;;;;;21.30;4.63;;;;;;;;;;5076333;28;20198;-75
2023/01/10 03:06:36;;;;;;;19.27;2.83;;;;;;;;;;5092826;28;20194;-75
2023/01/10 03:09:10;;;;;;;15.87;3.20;;;;;;;;;;5092170;28;20699;-75
2023/01/10 03:11:41;;;;;;;11.17;3.00;;;;;;;;;;5094352;28;20168;-76
2023/01/10 03:14:11;;;;;;;15.83;3.00;;;;;;;;;;5076171;28;20691;-76
2023/01/10 03:16:38;;;;;;;13.07;2.43;;;;;;;;;;5072548;28;20189;-76
2023/01/10 03:19:07;;;;;;;19.80;2.80;;;;;;;;;;5079929;28;20196;-76
2023/01/10 03:21:32;;;;;;;15.53;3.03;;;;;;;;;;5093637;28;20169;-75
2023/01/10 03:24:00;;;;;;;15.90;3.30;;;;;;;;;;5093702;28;20293;-76
2023/01/10 03:26:28;;;;;;;12.37;3.20;;;;;;;;;;5077486;28;20200;-77
2023/01/10 03:29:01;;;;;;;23.53;5.07;;;;;;;;;;5087186;28;20180;-77
2023/01/10 03:31:29;;;;;;;12.33;2.73;;;;;;;;;;5112013;28;20175;-75
2023/01/10 03:33:54;;;;;;;13.40;2.90;;;;;;;;;;5094277;28;20205;-75
2023/01/10 03:36:26;;;;;;;12.30;2.63;;;;;;;;;;5090853;28;20630;-75
2023/01/10 03:38:55;;;;;;;14.73;2.70;;;;;;;;;;5092004;28;20586;-75
2023/01/10 03:41:25;;;;;;;14.67;3.33;;;;;;;;;;5093074;28;20221;-75
2023/01/10 03:46:43;;;;;;;14.07;2.73;;;;;;;;;;5091420;28;20230;-76
2023/01/10 03:49:10;;;;;;;11.10;3.73;;;;;;;;;;5092886;28;20177;-76
2023/01/10 03:51:37;;;;;;;13.73;3.63;;;;;;;;;;5093221;28;20218;-76
2023/01/10 03:54:02;;;;;;;12.10;2.47;;;;;;;;;;5093055;28;20165;-76
2023/01/10 03:56:28;;;;;;;13.80;3.07;;;;;;;;;;5089825;28;20215;-76
2023/01/10 03:58:53;;;;;;;10.77;3.20;;;;;;;;;;5092816;28;20218;-76
2023/01/10 04:01:18;;;;;;;16.17;2.60;;;;;;;;;;5092960;28;20526;-76
2023/01/10 04:03:43;;;;;;;10.47;2.90;;;;;;;;;;5086174;28;20622;-77
2023/01/10 04:06:09;;;;;;;11.17;2.33;;;;;;;;;;5072615;28;20577;-77
2023/01/10 04:08:34;;;;;;;18.93;5.27;;;;;;;;;;5072687;28;20169;-76
2023/01/10 04:10:59;;;;;;;13.70;2.43;;;;;;;;;;5072578;28;20181;-77
2023/01/10 04:13:24;;;;;;;20.13;4.07;;;;;;;;;;5089396;28;20178;-77
2023/01/10 04:15:50;;;;;;;12.00;2.83;;;;;;;;;;5092696;28;20200;-76
2023/01/10 04:18:15;;;;;;;12.70;3.07;;;;;;;;;;5092399;28;20617;-77
2023/01/10 04:20:41;;;;;;;22.80;3.03;;;;;;;;;;5086911;28;20662;-76
2023/01/10 04:23:06;;;;;;;17.60;2.97;;;;;;;;;;5072381;28;20255;-76
2023/01/10 04:25:31;;;;;;;14.07;2.80;;;;;;;;;;5077436;28;20192;-76
2023/01/10 04:27:56;;;;;;;12.37;2.90;;;;;;;;;;5088751;28;20180;-77
2023/01/10 04:30:21;;;;;;;10.83;3.30;;;;;;;;;;5097923;28;20183;-76
2023/01/10 04:32:47;;;;;;;10.23;3.63;;;;;;;;;;5092425;28;20173;-76
2023/01/10 04:35:12;;;;;;;10.57;2.80;;;;;;;;;;5092269;28;20574;-75
2023/01/10 04:37:37;;;;;;;15.60;3.40;;;;;;;;;;5086873;28;20174;-75
2023/01/10 04:40:03;;;;;;;11.33;2.80;;;;;;;;;;5070589;28;20642;-76
2023/01/10 04:42:28;;;;;;;8.07;2.40;;;;;;;;;;5071806;28;20165;-76
2023/01/10 04:44:54;;;;;;;17.37;2.80;;;;;;;;;;5072036;28;20189;-76
2023/01/10 04:47:19;;;;;;;11.93;3.83;;;;;;;;;;5071974;28;20223;-76
2023/01/10 04:49:44;;;;;;;8.97;2.60;;;;;;;;;;5072149;28;20630;-76
2023/01/10 04:52:09;;;;;;;15.33;3.00;;;;;;;;;;5071726;28;20169;-76
2023/01/10 04:54:35;;;;;;;18.20;3.50;;;;;;;;;;5072386;28;20212;-75
2023/01/10 04:57:00;;;;;;;17.33;3.17;;;;;;;;;;5071896;28;20185;-75
2023/01/10 04:59:25;;;;;;;12.93;4.93;;;;;;;;;;5071434;28;20226;-75
2023/01/10 05:01:50;;;;;;;13.57;3.07;;;;;;;;;;5075230;28;20195;-75
2023/01/10 05:04:16;;;;;;;11.87;2.87;;;;;;;;;;5093515;28;20527;-75
2023/01/10 05:06:41;;;;;;;21.43;3.17;;;;;;;;;;5102388;28;20188;-76
2023/01/10 05:09:07;;;;;;;15.63;3.00;;;;;;;;;;5104970;28;20174;-76
2023/01/10 05:11:32;;;;;;;26.63;4.10;;;;;;;;;;5095473;28;20270;-76
2023/01/10 05:13:57;;;;;;;10.87;3.23;;;;;;;;;;5100334;28;20186;-76
2023/01/10 05:16:24;;;;;;;17.57;3.77;;;;;;;;;;5095536;28;20215;-76
2023/01/10 05:18:49;;;;;;;13.40;4.60;;;;;;;;;;5108968;28;20175;-76
2023/01/10 05:21:15;;;;;;;13.40;3.47;;;;;;;;;;5109068;28;20634;-76
2023/01/10 05:23:40;;;;;;;12.97;3.17;;;;;;;;;;5091229;28;20175;-76
2023/01/10 05:26:07;;;;;;;16.67;3.70;;;;;;;;;;5095523;28;20215;-76
2023/01/10 05:28:32;;;;;;;13.43;3.13;;;;;;;;;;5096844;28;20185;-76
2023/01/10 05:30:57;;;;;;;13.50;3.20;;;;;;;;;;5071269;28;20267;-77
2023/01/10 05:33:23;;;;;;;14.93;2.80;;;;;;;;;;5076475;28;20201;-77
2023/01/10 05:35:48;;;;;;;12.23;2.77;;;;;;;;;;5112108;28;20763;-77
2023/01/10 05:38:13;;;;;;;11.10;3.03;;;;;;;;;;5111623;28;20637;-77
2023/01/10 05:40:38;;;;;;;9.07;2.53;;;;;;;;;;5112193;28;20178;-75
2023/01/10 05:43:04;;;;;;;19.20;3.13;;;;;;;;;;5110980;28;20172;-77
2023/01/10 05:45:29;;;;;;;21.80;3.10;;;;;;;;;;5103675;28;20185;-77
2023/01/10 05:47:54;;;;;;;13.10;3.20;;;;;;;;;;5071194;28;20545;-75
2023/01/10 05:50:19;;;;;;;17.67;3.00;;;;;;;;;;5070593;28;20209;-75
2023/01/10 05:52:44;;;;;;;13.50;3.63;;;;;;;;;;5071568;28;20195;-75
2023/01/10 05:55:09;;;;;;;15.30;4.10;;;;;;;;;;5071165;28;20262;-75
2023/01/10 05:57:35;;;;;;;14.93;3.13;;;;;;;;;;5071301;28;20157;-75
2023/01/10 06:00:00;;;;;;;10.90;3.07;;;;;;;;;;5071389;28;20180;-75
2023/01/10 06:02:25;;;;;;;21.37;3.47;;;;;;;;;;5072002;28;20161;-75
2023/01/10 06:04:51;;;;;;;14.93;4.23;;;;;;;;;;5071217;28;20196;-75
2023/01/10 06:07:16;;;;;;;12.47;2.93;;;;;;;;;;5070703;28;20180;-75
2023/01/10 06:09:41;;;;;;;19.27;4.80;;;;;;;;;;5069448;28;20176;-75
2023/01/10 06:12:06;;;;;;;18.00;3.20;;;;;;;;;;5095722;28;20255;-76
2023/01/10 06:14:32;;;;;;;11.77;3.50;;;;;;;;;;5110745;28;20187;-76
2023/01/10 06:16:57;;;;;;;20.03;3.43;;;;;;;;;;5080659;28;20177;-76
2023/01/10 06:19:22;;;;;;;18.47;3.40;;;;;;;;;;5085887;28;20180;-76
2023/01/10 06:21:47;;;;;;;23.90;4.87;;;;;;;;;;5097879;28;20176;-76
2023/01/10 06:24:12;;;;;;;18.67;3.30;;;;;;;;;;5085010;28;20222;-76
2023/01/10 06:26:38;;;;;;;19.73;3.33;;;;;;;;;;5090430;28;20204;-76
2023/01/10 06:29:03;;;;;;;17.50;4.10;;;;;;;;;;5098861;28;20164;-76
2023/01/10 06:31:28;;;;;;;23.33;5.10;;;;;;;;;;5080632;28;20173;-76
2023/01/10 06:33:53;;;;;;;15.20;3.87;;;;;;;;;;5102604;28;20550;-76
2023/01/10 06:36:19;;;;;;;22.10;3.80;;;;;;;;;;5087468;28;20253;-76
2023/01/10 06:38:44;;;;;;;19.03;3.90;;;;;;;;;;5097072;28;20228;-76
2023/01/10 06:41:12;;;;;;;16.67;4.10;;;;;;;;;;5093063;28;20213;-76
2023/01/10 06:43:41;;;;;;;21.00;5.60;;;;;;;;;;5107659;28;20164;-76
2023/01/10 06:46:08;;;;;;;18.80;3.80;;;;;;;;;;5107443;28;20212;-76
2023/01/10 06:48:34;;;;;;;15.20;4.00;;;;;;;;;;5091196;28;20539;-76
2023/01/10 06:50:59;;;;;;;17.13;3.53;;;;;;;;;;5093327;28;20182;-76
2023/01/10 06:53:24;;;;;;;18.97;4.43;;;;;;;;;;5104470;28;20183;-74
2023/01/10 06:55:49;;;;;;;13.23;4.03;;;;;;;;;;5083160;28;20212;-76
2023/01/10 06:58:17;;;;;;;21.70;3.50;;;;;;;;;;5102395;28;20664;-75
2023/01/10 07:00:42;;;;;;;25.10;4.00;;;;;;;;;;5101725;28;20173;-76
2023/01/10 07:03:08;;;;;;;14.60;4.63;;;;;;;;;;5098113;28;20171;-76
2023/01/10 07:05:33;;;;;;;17.03;3.30;;;;;;;;;;5094266;28;20188;-76
2023/01/10 07:08:00;;;;;;;15.57;4.03;;;;;;;;;;5091293;28;20168;-76
2023/01/10 07:10:25;;;;;;;13.63;4.57;;;;;;;;;;5094236;28;20164;-76
2023/01/10 07:12:50;;;;;;;23.97;4.17;;;;;;;;;;5094308;28;20607;-75
2023/01/10 07:15:15;;;;;;;18.30;3.40;;;;;;;;;;5093965;28;20192;-76
2023/01/10 07:17:41;;;;;;;18.33;4.67;;;;;;;;;;5093802;28;20179;-75
2023/01/10 07:20:06;;;;;;;22.07;3.57;;;;;;;;;;5092683;28;20285;-76
2023/01/10 07:22:31;;;;;;;17.17;3.37;;;;;;;;;;5098640;28;20195;-75
2023/01/10 07:24:57;;;;;;;19.47;3.87;;;;;;;;;;5108739;28;20199;-76
2023/01/10 07:27:22;;;;;;;18.37;3.93;;;;;;;;;;5112938;28;20579;-75
2023/01/10 07:29:47;;;;;;;15.37;4.53;;;;;;;;;;5114163;28;20168;-75
2023/01/10 07:32:12;;;;;;;18.20;4.93;;;;;;;;;;5114244;28;20176;-76
2023/01/10 07:34:37;;;;;;;20.50;5.10;;;;;;;;;;5113959;28;20196;-75
2023/01/10 07:37:02;;;;;;;13.90;4.20;;;;;;;;;;5113837;28;20171;-76
2023/01/10 07:39:28;;;;;;;18.20;4.10;;;;;;;;;;5113760;28;20535;-76
2023/01/10 07:41:54;;;;;;;15.60;3.90;;;;;;;;;;5114057;28;20203;-76
2023/01/10 07:44:19;;;;;;;22.67;5.27;;;;;;;;;;5113635;28;20163;-76
2023/01/10 07:46:44;;;;;;;19.43;5.00;;;;;;;;;;5113843;28;20183;-76
2023/01/10 07:49:09;;;;;;;22.03;5.60;;;;;;;;;;5113622;28;20176;-75
2023/01/10 07:51:34;;;;;;;16.60;4.80;;;;;;;;;;5113703;28;20202;-75
2023/01/10 07:54:00;;;;;;;26.73;6.03;;;;;;;;;;5113735;27;20246;-75
2023/01/10 07:56:25;;;;;;;26.07;5.80;;;;;;;;;;5112196;28;20583;-74
2023/01/10 07:58:50;;;;;;;12.23;5.23;;;;;;;;;;5113573;28;20165;-74
2023/01/10 08:01:15;;;;;;;25.27;5.60;;;;;;;;;;5106639;28;20184;-74
2023/01/10 08:03:41;;;;;;;17.53;5.47;;;;;;;;;;5087098;28;20196;-74
2023/01/10 08:06:09;;;;;;;27.70;6.67;;;;;;;;;;5085486;28;20212;-74
2023/01/10 08:08:34;;;;;;;17.17;4.83;;;;;;;;;;5079116;28;20218;-75
2023/01/10 08:11:01;;;;;;;22.27;6.03;;;;;;;;;;5073284;28;20183;-75
2023/01/10 08:13:27;;;;;;;21.33;5.03;;;;;;;;;;5091318;28;20199;-75
2023/01/10 08:15:52;;;;;;;17.47;4.87;;;;;;;;;;5076930;28;20332;-77
2023/01/10 08:18:18;;;;;;;20.53;7.33;;;;;;;;;;5075759;28;20496;-75
2023/01/10 08:20:46;;;;;;;16.87;4.53;;;;;;;;;;5097261;28;20172;-75
2023/01/10 08:23:11;;;;;;;19.90;5.17;;;;;;;;;;5104530;28;20547;-74
2023/01/10 08:25:37;;;;;;;21.17;5.57;;;;;;;;;;5078262;27;20189;-77
2023/01/10 08:28:02;;;;;;;16.73;4.80;;;;;;;;;;5070753;28;20222;-77
2023/01/10 08:30:28;;;;;;;21.10;4.90;;;;;;;;;;5072385;28;20234;-77
2023/01/10 08:32:53;;;;;;;16.50;5.10;;;;;;;;;;5072384;28;20219;-75
2023/01/10 08:35:18;;;;;;;23.17;5.93;;;;;;;;;;5072143;28;20847;-76
2023/01/10 08:37:43;;;;;;;12.90;4.77;;;;;;;;;;5070744;28;20256;-76
2023/01/10 08:40:09;;;;;;;17.83;4.80;;;;;;;;;;5072307;28;20306;-76
2023/01/10 08:42:34;;;;;;;24.90;4.70;;;;;;;;;;5072368;28;20545;-75
2023/01/10 08:44:59;;;;;;;17.00;5.17;;;;;;;;;;5083078;28;20192;-75
2023/01/10 08:47:25;;;;;;;11.33;4.33;;;;;;;;;;5092294;28;20180;-74
2023/01/10 08:49:50;;;;;;;19.63;5.50;;;;;;;;;;5092081;28;20173;-75
2023/01/10 08:52:15;;;;;;;20.67;5.37;;;;;;;;;;5090898;28;20562;-74
2023/01/10 08:54:41;;;;;;;16.80;5.17;;;;;;;;;;5092306;28;20710;-75
2023/01/10 08:57:06;;;;;;;16.63;4.50;;;;;;;;;;5091637;28;20198;-75
2023/01/10 08:59:31;;;;;;;21.20;5.47;;;;;;;;;;5091954;28;20636;-74
2023/01/10 09:01:58;;;;;;;23.50;4.97;;;;;;;;;;5071766;28;20173;-75
2023/01/10 09:04:25;;;;;;;24.57;6.53;;;;;;;;;;5071624;28;20169;-75
2023/01/10 09:06:50;;;;;;;15.33;4.30;;;;;;;;;;5072292;28;20269;-75
2023/01/10 09:09:15;;;;;;;15.93;4.57;;;;;;;;;;5070407;28;20252;-75
2023/01/10 09:11:40;;;;;;;22.47;5.67;;;;;;;;;;5071927;28;20648;-74
2023/01/10 09:14:06;;;;;;;20.57;4.40;;;;;;;;;;5071813;28;20588;-77
2023/01/10 09:16:32;;;;;;;20.73;5.73;;;;;;;;;;5072205;28;20307;-76
2023/01/10 09:18:58;;;;;;;16.57;4.73;;;;;;;;;;5073152;28;20173;-76
2023/01/10 09:21:23;;;;;;;14.20;4.63;;;;;;;;;;5101335;28;20258;-74
2023/01/10 09:23:48;;;;;;;21.37;4.10;;;;;;;;;;5112211;28;20678;-75
2023/01/10 09:26:13;;;;;;;16.70;4.33;;;;;;;;;;5072402;28;20193;-75
2023/01/10 09:28:38;;;;;;;14.23;4.23;;;;;;;;;;5070246;28;20204;-74
2023/01/10 09:31:07;;;;;;;17.27;4.10;;;;;;;;;;5072067;28;20183;-75
2023/01/10 09:33:32;;;;;;;15.17;4.53;;;;;;;;;;5091061;28;20183;-74
2023/01/10 09:35:58;;;;;;;22.27;4.47;;;;;;;;;;5090172;28;20204;-74
2023/01/10 09:38:23;;;;;;;12.03;3.73;;;;;;;;;;5071628;28;20241;-75
2023/01/10 09:41:07;;;;;;;18.53;4.20;;;;;;;;;;5071405;28;20629;-75
2023/01/10 09:43:35;;;;;;;20.33;4.60;;;;;;;;;;5072495;28;20237;-77
2023/01/10 09:46:04;;;;;;;21.30;4.40;;;;;;;;;;5071435;28;20665;-76
2023/01/10 09:48:39;;;;;;;19.57;4.27;;;;;;;;;;5071219;28;20176;-77
2023/01/10 09:51:23;;;;;;;15.73;3.90;;;;;;;;;;5071390;28;20379;-76
2023/01/10 09:53:53;;;;;;;19.63;4.03;;;;;;;;;;5069999;28;20189;-76
2023/01/10 09:56:18;;;;;;;16.47;4.30;;;;;;;;;;5071132;28;20589;-77
2023/01/10 09:58:44;;;;;;;13.60;4.73;;;;;;;;;;5068734;28;20230;-76
2023/01/10 10:01:21;;;;;;;17.07;3.87;;;;;;;;;;5070752;28;20177;-76
2023/01/10 10:03:52;;;;;;;16.57;3.20;;;;;;;;;;5071273;28;20179;-75
2023/01/10 10:06:18;;;;;;;18.97;5.40;;;;;;;;;;5071146;28;20227;-76
2023/01/10 10:08:44;;;;;;;21.27;4.90;;;;;;;;;;5072766;28;20204;-76
2023/01/10 10:11:24;;;;;;;25.90;4.00;;;;;;;;;;5075183;28;20217;-75
2023/01/10 10:14:08;;;;;;;14.13;4.83;;;;;;;;;;5073764;28;20177;-76
2023/01/10 10:16:51;;;;;;;10.67;4.03;;;;;;;;;;5073763;28;20213;-75
2023/01/10 10:19:26;;;;;;;21.83;4.37;;;;;;;;;;5090062;28;20198;-75
2023/01/10 10:22:04;;;;;;;18.17;3.20;;;;;;;;;;5095833;28;20172;-76
2023/01/10 10:24:38;;;;;;;16.40;3.53;;;;;;;;;;5095774;28;20164;-76
2023/01/10 10:27:20;;;;;;;18.10;3.00;;;;;;;;;;5094090;28;20223;-76
2023/01/10 10:29:51;;;;;;;18.17;3.57;;;;;;;;;;5095567;28;20168;-76
2023/01/10 10:32:22;;;;;;;16.30;3.80;;;;;;;;;;5095449;28;20665;-76
2023/01/10 10:35:08;;;;;;;24.87;4.17;;;;;;;;;;5089656;28;20204;-74
2023/01/10 10:37:42;;;;;;;19.77;4.13;;;;;;;;;;5074335;28;20731;-74
2023/01/10 10:40:13;;;;;;;19.50;3.83;;;;;;;;;;5075036;28;20169;-75
2023/01/10 10:42:40;;;;;;;14.87;3.03;;;;;;;;;;5073790;28;20551;-74
2023/01/10 10:45:14;;;;;;;14.20;3.33;;;;;;;;;;5074778;28;20200;-75
2023/01/10 10:47:41;;;;;;;18.63;5.03;;;;;;;;;;5073094;28;20268;-75
2023/01/10 10:50:15;;;;;;;11.70;3.63;;;;;;;;;;5090333;28;20177;-76
2023/01/10 10:52:41;;;;;;;17.17;4.20;;;;;;;;;;5073225;28;20212;-75
2023/01/10 10:55:12;;;;;;;11.47;2.97;;;;;;;;;;5089823;28;20248;-76
2023/01/10 10:57:37;;;;;;;14.53;2.97;;;;;;;;;;5074964;28;20703;-75
2023/01/10 11:00:04;;;;;;;14.57;3.00;;;;;;;;;;5072916;28;20285;-75
2023/01/10 11:02:30;;;;;;;15.60;3.10;;;;;;;;;;5074207;28;20649;-75
2023/01/10 11:05:01;;;;;;;10.23;2.60;;;;;;;;;;5074136;28;20653;-75
2023/01/10 11:07:33;;;;;;;18.37;3.00;;;;;;;;;;5073501;28;20234;-75
2023/01/10 11:12:30;;;;;;;12.50;3.10;;;;;;;;;;5074233;28;20177;-75
2023/01/10 11:14:55;;;;;;;14.97;2.93;;;;;;;;;;5073884;28;20272;-75
2023/01/10 11:17:28;;;;;;;11.10;2.70;;;;;;;;;;5093367;28;20195;-75
2023/01/10 11:19:55;;;;;;;15.53;2.80;;;;;;;;;;5107330;28;20179;-75
2023/01/10 11:22:20;;;;;;;22.20;3.83;;;;;;;;;;5082803;28;20183;-76
2023/01/10 11:24:51;;;;;;;12.77;2.70;;;;;;;;;;5073643;28;20169;-76
2023/01/10 11:27:27;;;;;;;20.57;3.97;;;;;;;;;;5073485;28;20161;-74
2023/01/10 11:29:52;;;;;;;13.87;4.03;;;;;;;;;;5073515;28;20236;-74
2023/01/10 11:32:19;;;;;;;10.57;3.53;;;;;;;;;;5073522;28;20173;-74
2023/01/10 11:34:52;;;;;;;10.80;3.07;;;;;;;;;;5072107;28;20196;-74
2023/01/10 11:37:27;;;;;;;10.07;3.70;;;;;;;;;;5073508;28;20199;-74
2023/01/10 11:40:11;;;;;;;9.40;3.80;;;;;;;;;;5070138;28;20234;-76
2023/01/10 11:42:37;;;;;;;14.90;3.47;;;;;;;;;;5073462;28;20617;-74
2023/01/10 11:45:17;;;;;;;10.20;3.57;;;;;;;;;;5073259;28;20242;-74
2023/01/10 11:47:45;;;;;;;9.73;3.03;;;;;;;;;;5071744;28;20179;-75
2023/01/10 11:50:10;;;;;;;10.40;2.37;;;;;;;;;;5073541;28;20192;-75
2023/01/10 11:52:42;;;;;;;14.07;3.10;;;;;;;;;;5073299;28;20571;-75
2023/01/10 11:55:07;;;;;;;17.40;3.47;;;;;;;;;;5073014;28;20213;-75
2023/01/10 11:57:32;;;;;;;11.23;3.07;;;;;;;;;;5072458;28;20257;-75
2023/01/10 12:00:00;;;;;;;14.97;3.53;;;;;;;;;;5103192;28;20599;-75
2023/01/10 12:02:44;;;;;;;12.17;2.97;;;;;;;;;;5071825;28;20165;-76
2023/01/10 12:05:16;;;;;;;12.07;3.60;;;;;;;;;;5073338;28;20554;-74
2023/01/10 12:07:59;;;;;;;20.47;4.43;;;;;;;;;;5072011;28;20642;-74
2023/01/10 12:10:26;;;;;;;13.67;2.80;;;;;;;;;;5072282;28;20195;-74
2023/01/10 12:12:53;;;;;;;16.33;3.80;;;;;;;;;;5072791;28;20181;-76
2023/01/10 12:15:29;;;;;;;13.23;2.87;;;;;;;;;;5083258;28;20287;-76
2023/01/10 12:17:56;;;;;;;17.03;3.67;;;;;;;;;;5101221;28;20217;-76
2023/01/10 12:20:22;;;;;;;11.63;2.70;;;;;;;;;;5113301;28;20628;-75
2023/01/10 12:22:50;;;;;;;12.80;2.87;;;;;;;;;;5113140;28;20168;-74
2023/01/10 12:25:17;;;;;;;13.13;2.50;;;;;;;;;;5113018;27;20199;-76
2023/01/10 12:27:43;;;;;;;13.27;3.23;;;;;;;;;;5113020;28;20277;-74
2023/01/10 12:30:15;;;;;;;13.53;4.33;;;;;;;;;;5113065;28;20191;-76
2023/01/10 12:32:43;;;;;;;13.80;3.47;;;;;;;;;;5112045;28;20201;-75
2023/01/10 12:35:17;;;;;;;13.73;2.60;;;;;;;;;;5113009;28;20210;-76
2023/01/10 12:37:49;;;;;;;10.13;2.80;;;;;;;;;;5112606;28;20656;-76
2023/01/10 12:40:17;;;;;;;12.97;2.97;;;;;;;;;;5111536;28;20183;-74
2023/01/10 12:45:35;;;;;;;12.63;2.77;;;;;;;;;;5113056;28;20699;-76
2023/01/10 12:48:00;;;;;;;11.23;3.20;;;;;;;;;;5112405;28;20176;-77
2023/01/10 12:50:31;;;;;;;11.67;3.60;;;;;;;;;;5111445;28;20171;-76
2023/01/10 12:52:58;;;;;;;13.60;3.23;;;;;;;;;;5112881;28;20163;-76
2023/01/10 12:55:26;;;;;;;16.53;2.70;;;;;;;;;;5112325;28;20256;-76
2023/01/10 12:57:56;;;;;;;18.90;3.17;;;;;;;;;;5112325;28;20167;-76
2023/01/10 13:00:29;;;;;;;11.00;2.90;;;;;;;;;;5112484;28;20240;-76
2023/01/10 13:02:55;;;;;;;18.87;3.53;;;;;;;;;;5112595;28;20199;-75
2023/01/10 13:05:23;;;;;;;19.70;4.80;;;;;;;;;;5111114;28;20199;-76
2023/01/10 13:07:50;;;;;;;10.37;3.07;;;;;;;;;;5110704;28;20168;-76
2023/01/10 13:10:17;;;;;;;12.13;3.03;;;;;;;;;;5110861;28;20183;-76
2023/01/10 13:12:44;;;;;;;12.47;3.83;;;;;;;;;;5110180;28;20168;-76
2023/01/10 13:15:16;;;;;;;13.00;2.80;;;;;;;;;;5096253;28;20736;-76
2023/01/10 13:17:44;;;;;;;11.80;2.57;;;;;;;;;;5067726;28;20209;-76
2023/01/10 13:20:15;;;;;;;12.50;2.97;;;;;;;;;;5071898;28;20677;-76
2023/01/10 13:22:40;;;;;;;9.83;2.50;;;;;;;;;;5071791;28;20161;-76
2023/01/10 13:25:17;;;;;;;13.53;4.00;;;;;;;;;;5071615;28;20723;-76
2023/01/10 13:27:43;;;;;;;16.87;3.07;;;;;;;;;;5071493;28;20188;-75
2023/01/10 13:30:23;;;;;;;4.87;2.37;;;;;;;;;;5071564;28;20331;-76
2023/01/10 13:32:53;;;;;;;14.73;3.17;;;;;;;;;;5075028;28;20615;-77
2023/01/10 13:35:19;;;;;;;10.30;2.47;;;;;;;;;;5097408;28;20231;-76
2023/01/10 13:37:50;;;;;;;16.27;4.43;;;;;;;;;;5091540;28;20192;-76
2023/01/10 13:40:33;;;;;;;13.17;4.33;;;;;;;;;;5091794;28;20171;-74
2023/01/10 13:43:20;;;;;;;11.37;3.50;;;;;;;;;;5092833;28;20247;-76
2023/01/10 13:45:45;;;;;;;14.70;3.63;;;;;;;;;;5094621;28;20194;-76
2023/01/10 13:48:24;;;;;;;14.57;2.80;;;;;;;;;;5091186;28;20168;-76
2023/01/10 13:50:50;;;;;;;7.77;2.07;;;;;;;;;;5075167;28;20588;-76
2023/01/10 13:53:16;;;;;;;14.37;3.47;;;;;;;;;;5074213;28;20203;-76
2023/01/10 13:55:41;;;;;;;15.87;2.60;;;;;;;;;;5075135;28;20220;-76
2023/01/10 13:58:12;;;;;;;14.37;2.73;;;;;;;;;;5074819;28;20184;-76
2023/01/10 14:03:41;;;;;;;13.20;4.20;;;;;;;;;;5075312;28;20711;-77
2023/01/10 14:06:27;;;;;;;21.60;4.13;;;;;;;;;;5075180;28;20284;-77
2023/01/10 14:08:53;;;;;;;13.07;3.40;;;;;;;;;;5063068;28;20215;-76
2023/01/10 14:11:19;;;;;;;11.43;2.33;;;;;;;;;;5073715;28;20181;-77
2023/01/10 14:13:46;;;;;;;10.27;2.70;;;;;;;;;;5094894;28;20195;-76
2023/01/10 14:16:30;;;;;;;10.93;2.97;;;;;;;;;;5100991;28;20283;-76
2023/01/10 14:18:55;;;;;;;10.73;2.60;;;;;;;;;;5074529;28;20598;-76
2023/01/10 14:21:23;;;;;;;10.63;2.40;;;;;;;;;;5074928;28;20168;-76
2023/01/10 14:23:49;;;;;;;16.23;4.57;;;;;;;;;;5074986;28;20180;-77
2023/01/10 14:26:21;;;;;;;14.93;3.20;;;;;;;;;;5073559;28;20287;-77
2023/01/10 14:28:48;;;;;;;11.07;3.20;;;;;;;;;;5074405;28;20222;-76
2023/01/10 14:31:18;;;;;;;15.17;3.00;;;;;;;;;;5074686;28;20653;-76
2023/01/10 14:33:43;;;;;;;10.20;3.07;;;;;;;;;;5074698;28;20173;-76
2023/01/10 14:36:14;;;;;;;13.40;3.07;;;;;;;;;;5073269;28;20211;-76
2023/01/10 14:38:39;;;;;;;16.43;3.83;;;;;;;;;;5074532;28;20260;-76
2023/01/10 14:41:04;;;;;;;19.73;3.87;;;;;;;;;;5074654;28;20252;-74
2023/01/10 14:43:52;;;;;;;13.60;3.80;;;;;;;;;;5074483;28;20176;-74
2023/01/10 14:46:28;;;;;;;13.17;3.77;;;;;;;;;;5086185;28;20212;-74
2023/01/10 14:48:56;;;;;;;14.63;2.53;;;;;;;;;;5074135;28;20207;-74
2023/01/10 14:51:25;;;;;;;17.10;3.60;;;;;;;;;;5073084;28;20226;-75